sensor_id;sensor_type;location;lat;lon;timestamp;temperature;humidity
6206;DHT22;3136;48.788;9.772;2023-12-28T00:00:15;-0.20;99.90
6206;DHT22;3136;48.788;9.772;2023-12-28T00:02:40;-0.20;99.90
6206;DHT22;3136;48.788;9.772;2023-12-28T00:05:06;-0.20;99.90
6206;DHT22;3136;48.788;9.772;2023-12-28T00:07:32;-0.20;99.90
6206;DHT22;3136;48.788;9.772;2023-12-28T00:09:57;-0.20;99.90
6206;DHT22;3136;48.788;9.772;2023-12-28T00:12:23;-0.20;99.90
6206;DHT22;3136;48.788;9.772;2023-12-28T00:14:50;-0.20;1.00
6206;DHT22;3136;48.788;9.772;2023-12-28T00:17:15;-0.20;1.00
6206;DHT22;3136;48.788;9.772;2023-12-28T00:19:41;-0.10;1.00
6206;DHT22;3136;48.788;9.772;2023-12-28T00:22:06;-0.20;1.00
6206;DHT22;3136;48.788;9.772;2023-12-28T00:24:32;0.90;1.00
6206;DHT22;3136;48.788;9.772;2023-12-28T00:26:57;-0.20;1.00
6206;DHT22;3136;48.788;9.772;2023-12-28T00:29:23;-0.20;1.00
6206;DHT22;3136;48.788;9.772;2023-12-28T00:31:48;-0.20;1.00
6206;DHT22;3136;48.788;9.772;2023-12-28T00:34:14;-0.20;1.00
6206;DHT22;3136;48.788;9.772;2023-12-28T00:36:39;-0.20;1.00
6206;DHT22;3136;48.788;9.772;2023-12-28T00:39:05;-0.30;1.00
6206;DHT22;3136;48.788;9.772;2023-12-28T00:41:30;-0.30;1.00
6206;DHT22;3136;48.788;9.772;2023-12-28T00:43:56;-0.20;1.00
6206;DHT22;3136;48.788;9.772;2023-12-28T00:46:21;-0.20;1.00
6206;DHT22;3136;48.788;9.772;2023-12-28T00:48:47;-0.20;1.00
6206;DHT22;3136;48.788;9.772;2023-12-28T00:51:13;-0.20;1.00
6206;DHT22;3136;48.788;9.772;2023-12-28T00:53:39;-0.20;1.00
6206;DHT22;3136;48.788;9.772;2023-12-28T00:56:04;-0.20;1.00
6206;DHT22;3136;48.788;9.772;2023-12-28T00:58:30;-0.20;1.00
6206;DHT22;3136;48.788;9.772;2023-12-28T01:00:56;-0.20;1.00
6206;DHT22;3136;48.788;9.772;2023-12-28T01:03:22;-0.20;1.00
6206;DHT22;3136;48.788;9.772;2023-12-28T01:05:48;-0.20;1.00
6206;DHT22;3136;48.788;9.772;2023-12-28T01:08:16;-0.30;1.00
6206;DHT22;3136;48.788;9.772;2023-12-28T01:10:42;-0.30;1.00
6206;DHT22;3136;48.788;9.772;2023-12-28T01:13:08;-0.30;1.00
6206;DHT22;3136;48.788;9.772;2023-12-28T01:15:33;-0.30;1.00
6206;DHT22;3136;48.788;9.772;2023-12-28T01:17:59;-0.40;1.00
6206;DHT22;3136;48.788;9.772;2023-12-28T01:20:25;-0.30;1.00
6206;DHT22;3136;48.788;9.772;2023-12-28T01:22:50;-0.40;1.00
6206;DHT22;3136;48.788;9.772;2023-12-28T01:25:16;-0.40;1.00
6206;DHT22;3136;48.788;9.772;2023-12-28T01:27:42;-0.40;1.00
6206;DHT22;3136;48.788;9.772;2023-12-28T01:30:07;-0.40;1.00
6206;DHT22;3136;48.788;9.772;2023-12-28T01:32:33;-0.40;1.00
6206;DHT22;3136;48.788;9.772;2023-12-28T01:34:59;-0.40;1.00
6206;DHT22;3136;48.788;9.772;2023-12-28T01:37:24;-0.40;1.00
6206;DHT22;3136;48.788;9.772;2023-12-28T01:39:50;-0.30;1.00
6206;DHT22;3136;48.788;9.772;2023-12-28T01:42:15;-0.40;1.00
6206;DHT22;3136;48.788;9.772;2023-12-28T01:44:41;-0.40;1.00
6206;DHT22;3136;48.788;9.772;2023-12-28T01:47:06;-0.40;1.00
6206;DHT22;3136;48.788;9.772;2023-12-28T01:49:33;-0.40;1.00
6206;DHT22;3136;48.788;9.772;2023-12-28T01:52:01;-0.40;1.00
6206;DHT22;3136;48.788;9.772;2023-12-28T01:54:27;-0.40;1.00
6206;DHT22;3136;48.788;9.772;2023-12-28T01:56:52;-0.40;1.00
6206;DHT22;3136;48.788;9.772;2023-12-28T01:59:18;-0.40;1.00
6206;DHT22;3136;48.788;9.772;2023-12-28T02:01:44;-0.40;1.00
6206;DHT22;3136;48.788;9.772;2023-12-28T02:04:10;-0.40;1.00
6206;DHT22;3136;48.788;9.772;2023-12-28T02:06:36;-0.40;1.00
6206;DHT22;3136;48.788;9.772;2023-12-28T02:09:01;-0.30;1.00
6206;DHT22;3136;48.788;9.772;2023-12-28T02:11:28;-0.40;1.00
6206;DHT22;3136;48.788;9.772;2023-12-28T02:13:53;-0.40;1.00
6206;DHT22;3136;48.788;9.772;2023-12-28T02:16:26;-0.40;1.00
6206;DHT22;3136;48.788;9.772;2023-12-28T02:18:56;-0.40;1.00
6206;DHT22;3136;48.788;9.772;2023-12-28T02:21:23;-0.40;1.00
6206;DHT22;3136;48.788;9.772;2023-12-28T02:23:50;-0.50;1.00
6206;DHT22;3136;48.788;9.772;2023-12-28T02:26:16;-0.50;1.00
6206;DHT22;3136;48.788;9.772;2023-12-28T02:28:43;-0.40;1.00
6206;DHT22;3136;48.788;9.772;2023-12-28T02:31:17;-0.50;1.00
6206;DHT22;3136;48.788;9.772;2023-12-28T02:33:57;-0.50;1.00
6206;DHT22;3136;48.788;9.772;2023-12-28T02:36:26;-0.50;1.00
6206;DHT22;3136;48.788;9.772;2023-12-28T02:38:52;-0.50;1.00
6206;DHT22;3136;48.788;9.772;2023-12-28T02:41:21;-0.50;1.00
6206;DHT22;3136;48.788;9.772;2023-12-28T02:43:48;-0.50;1.00
6206;DHT22;3136;48.788;9.772;2023-12-28T02:46:14;-0.60;1.00
6206;DHT22;3136;48.788;9.772;2023-12-28T02:48:39;-0.60;1.00
6206;DHT22;3136;48.788;9.772;2023-12-28T02:51:05;-0.60;1.00
6206;DHT22;3136;48.788;9.772;2023-12-28T02:53:31;-0.60;1.00
6206;DHT22;3136;48.788;9.772;2023-12-28T02:55:56;-0.60;1.00
6206;DHT22;3136;48.788;9.772;2023-12-28T02:58:22;-0.60;1.00
6206;DHT22;3136;48.788;9.772;2023-12-28T03:00:47;-0.60;1.00
6206;DHT22;3136;48.788;9.772;2023-12-28T03:03:14;-0.70;1.00
6206;DHT22;3136;48.788;9.772;2023-12-28T03:05:39;-0.70;1.00
6206;DHT22;3136;48.788;9.772;2023-12-28T03:08:06;-0.70;1.00
6206;DHT22;3136;48.788;9.772;2023-12-28T03:10:32;-0.70;1.00
6206;DHT22;3136;48.788;9.772;2023-12-28T03:12:57;-0.70;1.00
6206;DHT22;3136;48.788;9.772;2023-12-28T03:15:23;-0.60;1.00
6206;DHT22;3136;48.788;9.772;2023-12-28T03:17:48;-0.60;1.00
6206;DHT22;3136;48.788;9.772;2023-12-28T03:20:15;-0.70;1.00
6206;DHT22;3136;48.788;9.772;2023-12-28T03:22:40;-0.60;1.00
6206;DHT22;3136;48.788;9.772;2023-12-28T03:25:06;-0.60;1.00
6206;DHT22;3136;48.788;9.772;2023-12-28T03:27:32;-0.60;1.00
6206;DHT22;3136;48.788;9.772;2023-12-28T03:29:58;-0.60;1.00
6206;DHT22;3136;48.788;9.772;2023-12-28T03:32:23;-0.60;1.00
6206;DHT22;3136;48.788;9.772;2023-12-28T03:34:49;-0.60;1.00
6206;DHT22;3136;48.788;9.772;2023-12-28T03:37:14;-0.60;1.00
6206;DHT22;3136;48.788;9.772;2023-12-28T03:39:40;-0.60;1.00
6206;DHT22;3136;48.788;9.772;2023-12-28T03:42:06;-0.60;1.00
6206;DHT22;3136;48.788;9.772;2023-12-28T03:44:31;-0.70;1.00
6206;DHT22;3136;48.788;9.772;2023-12-28T03:46:57;-0.70;1.00
6206;DHT22;3136;48.788;9.772;2023-12-28T03:49:22;-0.60;1.00
6206;DHT22;3136;48.788;9.772;2023-12-28T03:51:50;-0.60;1.00
6206;DHT22;3136;48.788;9.772;2023-12-28T03:54:17;-0.60;1.00
6206;DHT22;3136;48.788;9.772;2023-12-28T03:56:42;-0.60;1.00
6206;DHT22;3136;48.788;9.772;2023-12-28T03:59:09;-0.50;1.00
6206;DHT22;3136;48.788;9.772;2023-12-28T04:01:35;-0.50;1.00
6206;DHT22;3136;48.788;9.772;2023-12-28T04:04:00;-0.50;1.00
6206;DHT22;3136;48.788;9.772;2023-12-28T04:06:26;-0.40;1.00
6206;DHT22;3136;48.788;9.772;2023-12-28T04:08:52;-0.40;1.00
6206;DHT22;3136;48.788;9.772;2023-12-28T04:11:18;-0.20;1.00
6206;DHT22;3136;48.788;9.772;2023-12-28T04:13:44;-0.20;1.00
6206;DHT22;3136;48.788;9.772;2023-12-28T04:16:16;-0.10;1.00
6206;DHT22;3136;48.788;9.772;2023-12-28T04:18:42;0.10;1.00
6206;DHT22;3136;48.788;9.772;2023-12-28T04:21:08;0.20;1.00
6206;DHT22;3136;48.788;9.772;2023-12-28T04:23:36;0.20;1.00
6206;DHT22;3136;48.788;9.772;2023-12-28T04:26:01;0.30;1.00
6206;DHT22;3136;48.788;9.772;2023-12-28T04:28:27;0.40;1.00
6206;DHT22;3136;48.788;9.772;2023-12-28T04:30:53;0.50;1.00
6206;DHT22;3136;48.788;9.772;2023-12-28T04:33:18;0.50;1.00
6206;DHT22;3136;48.788;9.772;2023-12-28T04:35:46;0.60;1.00
6206;DHT22;3136;48.788;9.772;2023-12-28T04:38:12;0.60;1.00
6206;DHT22;3136;48.788;9.772;2023-12-28T04:40:38;0.70;1.00
6206;DHT22;3136;48.788;9.772;2023-12-28T04:43:04;0.70;1.00
6206;DHT22;3136;48.788;9.772;2023-12-28T04:45:29;0.80;1.00
6206;DHT22;3136;48.788;9.772;2023-12-28T04:47:55;0.80;1.00
6206;DHT22;3136;48.788;9.772;2023-12-28T04:50:20;0.90;1.00
6206;DHT22;3136;48.788;9.772;2023-12-28T04:52:46;0.90;1.00
6206;DHT22;3136;48.788;9.772;2023-12-28T04:55:12;0.90;1.00
6206;DHT22;3136;48.788;9.772;2023-12-28T04:57:37;1.00;1.00
6206;DHT22;3136;48.788;9.772;2023-12-28T05:00:03;1.00;1.00
6206;DHT22;3136;48.788;9.772;2023-12-28T05:02:29;1.00;1.00
6206;DHT22;3136;48.788;9.772;2023-12-28T05:04:55;1.00;1.00
6206;DHT22;3136;48.788;9.772;2023-12-28T05:07:20;1.10;1.00
6206;DHT22;3136;48.788;9.772;2023-12-28T05:09:46;1.10;1.00
6206;DHT22;3136;48.788;9.772;2023-12-28T05:12:12;1.10;1.00
6206;DHT22;3136;48.788;9.772;2023-12-28T05:14:37;1.20;1.00
6206;DHT22;3136;48.788;9.772;2023-12-28T05:17:03;1.20;1.00
6206;DHT22;3136;48.788;9.772;2023-12-28T05:19:29;1.30;1.00
6206;DHT22;3136;48.788;9.772;2023-12-28T05:21:54;1.30;1.00
6206;DHT22;3136;48.788;9.772;2023-12-28T05:24:20;1.30;1.00
6206;DHT22;3136;48.788;9.772;2023-12-28T05:26:46;1.40;1.00
6206;DHT22;3136;48.788;9.772;2023-12-28T05:29:11;1.40;1.00
6206;DHT22;3136;48.788;9.772;2023-12-28T05:31:37;1.40;1.00
6206;DHT22;3136;48.788;9.772;2023-12-28T05:34:02;1.50;1.00
6206;DHT22;3136;48.788;9.772;2023-12-28T05:36:28;1.40;1.00
6206;DHT22;3136;48.788;9.772;2023-12-28T05:38:54;1.50;1.00
6206;DHT22;3136;48.788;9.772;2023-12-28T05:41:19;1.50;1.00
6206;DHT22;3136;48.788;9.772;2023-12-28T05:43:45;1.50;1.00
6206;DHT22;3136;48.788;9.772;2023-12-28T05:46:10;1.60;1.00
6206;DHT22;3136;48.788;9.772;2023-12-28T05:48:36;1.60;1.00
6206;DHT22;3136;48.788;9.772;2023-12-28T05:51:02;1.60;1.00
6206;DHT22;3136;48.788;9.772;2023-12-28T05:53:27;1.60;1.00
6206;DHT22;3136;48.788;9.772;2023-12-28T05:55:54;1.70;1.00
6206;DHT22;3136;48.788;9.772;2023-12-28T05:58:20;1.70;1.00
6206;DHT22;3136;48.788;9.772;2023-12-28T06:00:45;1.80;1.00
6206;DHT22;3136;48.788;9.772;2023-12-28T06:03:14;1.90;1.00
6206;DHT22;3136;48.788;9.772;2023-12-28T06:05:40;1.90;1.00
6206;DHT22;3136;48.788;9.772;2023-12-28T06:08:06;1.90;1.00
6206;DHT22;3136;48.788;9.772;2023-12-28T06:10:31;2.00;1.00
6206;DHT22;3136;48.788;9.772;2023-12-28T06:12:57;2.00;1.00
6206;DHT22;3136;48.788;9.772;2023-12-28T06:15:23;2.10;1.00
6206;DHT22;3136;48.788;9.772;2023-12-28T06:17:48;2.20;1.00
6206;DHT22;3136;48.788;9.772;2023-12-28T06:20:14;2.20;1.00
6206;DHT22;3136;48.788;9.772;2023-12-28T06:22:39;2.20;1.00
6206;DHT22;3136;48.788;9.772;2023-12-28T06:25:05;2.30;1.00
6206;DHT22;3136;48.788;9.772;2023-12-28T06:27:31;2.30;1.00
6206;DHT22;3136;48.788;9.772;2023-12-28T06:29:57;2.30;1.00
6206;DHT22;3136;48.788;9.772;2023-12-28T06:32:23;2.30;1.00
6206;DHT22;3136;48.788;9.772;2023-12-28T06:34:48;2.40;1.00
6206;DHT22;3136;48.788;9.772;2023-12-28T06:37:14;2.50;1.00
6206;DHT22;3136;48.788;9.772;2023-12-28T06:39:39;2.50;1.00
6206;DHT22;3136;48.788;9.772;2023-12-28T06:42:05;2.60;1.00
6206;DHT22;3136;48.788;9.772;2023-12-28T06:44:31;3.10;1.00
6206;DHT22;3136;48.788;9.772;2023-12-28T06:46:57;2.70;1.00
6206;DHT22;3136;48.788;9.772;2023-12-28T06:49:23;2.70;1.00
6206;DHT22;3136;48.788;9.772;2023-12-28T06:51:49;2.80;1.00
6206;DHT22;3136;48.788;9.772;2023-12-28T06:54:14;2.80;1.00
6206;DHT22;3136;48.788;9.772;2023-12-28T06:56:40;2.90;1.00
6206;DHT22;3136;48.788;9.772;2023-12-28T06:59:06;2.90;1.00
6206;DHT22;3136;48.788;9.772;2023-12-28T07:01:31;3.00;1.00
6206;DHT22;3136;48.788;9.772;2023-12-28T07:03:57;3.00;1.00
6206;DHT22;3136;48.788;9.772;2023-12-28T07:06:24;3.00;1.00
6206;DHT22;3136;48.788;9.772;2023-12-28T07:08:50;3.10;1.00
6206;DHT22;3136;48.788;9.772;2023-12-28T07:11:16;3.10;1.00
6206;DHT22;3136;48.788;9.772;2023-12-28T07:13:41;3.10;1.00
6206;DHT22;3136;48.788;9.772;2023-12-28T07:16:07;3.20;1.00
6206;DHT22;3136;48.788;9.772;2023-12-28T07:18:33;3.20;1.00
6206;DHT22;3136;48.788;9.772;2023-12-28T07:20:58;3.30;1.00
6206;DHT22;3136;48.788;9.772;2023-12-28T07:23:25;3.30;1.00
6206;DHT22;3136;48.788;9.772;2023-12-28T07:25:51;3.40;1.00
6206;DHT22;3136;48.788;9.772;2023-12-28T07:28:16;3.40;1.00
6206;DHT22;3136;48.788;9.772;2023-12-28T07:30:42;3.40;1.00
6206;DHT22;3136;48.788;9.772;2023-12-28T07:33:07;3.50;1.00
6206;DHT22;3136;48.788;9.772;2023-12-28T07:35:33;3.50;1.00
6206;DHT22;3136;48.788;9.772;2023-12-28T07:37:59;3.60;1.00
6206;DHT22;3136;48.788;9.772;2023-12-28T07:40:24;3.70;1.00
6206;DHT22;3136;48.788;9.772;2023-12-28T07:42:50;3.70;1.00
6206;DHT22;3136;48.788;9.772;2023-12-28T07:45:15;3.70;1.00
6206;DHT22;3136;48.788;9.772;2023-12-28T07:47:42;3.80;1.00
6206;DHT22;3136;48.788;9.772;2023-12-28T07:50:08;3.80;1.00
6206;DHT22;3136;48.788;9.772;2023-12-28T07:52:36;3.90;1.00
6206;DHT22;3136;48.788;9.772;2023-12-28T07:55:03;3.90;1.00
6206;DHT22;3136;48.788;9.772;2023-12-28T07:57:29;3.90;1.00
6206;DHT22;3136;48.788;9.772;2023-12-28T07:59:56;3.90;1.00
6206;DHT22;3136;48.788;9.772;2023-12-28T08:02:21;4.00;1.00
6206;DHT22;3136;48.788;9.772;2023-12-28T08:04:47;4.00;1.00
6206;DHT22;3136;48.788;9.772;2023-12-28T08:07:14;4.00;1.00
6206;DHT22;3136;48.788;9.772;2023-12-28T08:09:39;4.00;1.00
6206;DHT22;3136;48.788;9.772;2023-12-28T08:12:05;4.10;1.00
6206;DHT22;3136;48.788;9.772;2023-12-28T08:14:31;4.10;1.00
6206;DHT22;3136;48.788;9.772;2023-12-28T08:16:56;4.20;1.00
6206;DHT22;3136;48.788;9.772;2023-12-28T08:19:22;4.20;99.90
6206;DHT22;3136;48.788;9.772;2023-12-28T08:21:47;4.30;99.90
6206;DHT22;3136;48.788;9.772;2023-12-28T08:24:13;4.30;99.90
6206;DHT22;3136;48.788;9.772;2023-12-28T08:26:39;4.30;99.90
6206;DHT22;3136;48.788;9.772;2023-12-28T08:29:05;4.40;99.90
6206;DHT22;3136;48.788;9.772;2023-12-28T08:31:30;4.40;99.90
6206;DHT22;3136;48.788;9.772;2023-12-28T08:33:56;4.40;99.90
6206;DHT22;3136;48.788;9.772;2023-12-28T08:36:22;4.50;99.90
6206;DHT22;3136;48.788;9.772;2023-12-28T08:38:47;4.50;99.90
6206;DHT22;3136;48.788;9.772;2023-12-28T08:41:20;4.50;99.90
6206;DHT22;3136;48.788;9.772;2023-12-28T08:43:46;4.50;99.90
6206;DHT22;3136;48.788;9.772;2023-12-28T08:46:13;4.60;99.90
6206;DHT22;3136;48.788;9.772;2023-12-28T08:48:42;4.60;83.80
6206;DHT22;3136;48.788;9.772;2023-12-28T08:51:09;4.70;62.30
6206;DHT22;3136;48.788;9.772;2023-12-28T08:53:35;4.80;41.00
6206;DHT22;3136;48.788;9.772;2023-12-28T08:56:01;4.80;1.00
6206;DHT22;3136;48.788;9.772;2023-12-28T08:58:27;4.80;1.00
6206;DHT22;3136;48.788;9.772;2023-12-28T09:00:52;4.90;1.00
6206;DHT22;3136;48.788;9.772;2023-12-28T09:03:18;5.00;1.00
6206;DHT22;3136;48.788;9.772;2023-12-28T09:05:44;5.10;99.90
6206;DHT22;3136;48.788;9.772;2023-12-28T09:08:09;5.10;99.90
6206;DHT22;3136;48.788;9.772;2023-12-28T09:10:35;5.10;89.70
6206;DHT22;3136;48.788;9.772;2023-12-28T09:13:00;5.20;1.00
6206;DHT22;3136;48.788;9.772;2023-12-28T09:15:26;5.20;1.00
6206;DHT22;3136;48.788;9.772;2023-12-28T09:17:51;5.20;1.00
6206;DHT22;3136;48.788;9.772;2023-12-28T09:20:18;5.30;1.00
6206;DHT22;3136;48.788;9.772;2023-12-28T09:22:44;5.30;1.00
6206;DHT22;3136;48.788;9.772;2023-12-28T09:25:11;5.40;1.00
6206;DHT22;3136;48.788;9.772;2023-12-28T09:27:37;5.40;1.00
6206;DHT22;3136;48.788;9.772;2023-12-28T09:30:03;5.50;1.00
6206;DHT22;3136;48.788;9.772;2023-12-28T09:32:29;5.50;1.00
6206;DHT22;3136;48.788;9.772;2023-12-28T09:34:54;5.60;1.00
6206;DHT22;3136;48.788;9.772;2023-12-28T09:37:20;5.60;1.00
6206;DHT22;3136;48.788;9.772;2023-12-28T09:39:46;5.60;1.00
6206;DHT22;3136;48.788;9.772;2023-12-28T09:42:25;5.70;99.90
6206;DHT22;3136;48.788;9.772;2023-12-28T09:44:54;5.70;99.90
6206;DHT22;3136;48.788;9.772;2023-12-28T09:47:20;5.80;99.90
6206;DHT22;3136;48.788;9.772;2023-12-28T09:49:46;5.80;99.90
6206;DHT22;3136;48.788;9.772;2023-12-28T09:52:12;5.90;99.90
6206;DHT22;3136;48.788;9.772;2023-12-28T09:54:37;6.00;1.00
6206;DHT22;3136;48.788;9.772;2023-12-28T09:57:03;6.00;1.00
6206;DHT22;3136;48.788;9.772;2023-12-28T09:59:30;6.00;1.00
6206;DHT22;3136;48.788;9.772;2023-12-28T10:01:57;6.10;99.90
6206;DHT22;3136;48.788;9.772;2023-12-28T10:04:23;6.20;99.90
6206;DHT22;3136;48.788;9.772;2023-12-28T10:06:49;6.20;1.50
6206;DHT22;3136;48.788;9.772;2023-12-28T10:09:16;6.30;1.00
6206;DHT22;3136;48.788;9.772;2023-12-28T10:11:42;6.30;99.90
6206;DHT22;3136;48.788;9.772;2023-12-28T10:14:09;6.30;99.90
6206;DHT22;3136;48.788;9.772;2023-12-28T10:16:35;6.40;99.90
6206;DHT22;3136;48.788;9.772;2023-12-28T10:19:00;6.50;99.90
6206;DHT22;3136;48.788;9.772;2023-12-28T10:21:26;7.30;94.70
6206;DHT22;3136;48.788;9.772;2023-12-28T10:23:52;6.60;1.00
6206;DHT22;3136;48.788;9.772;2023-12-28T10:26:18;6.60;1.00
6206;DHT22;3136;48.788;9.772;2023-12-28T10:28:44;6.70;99.90
6206;DHT22;3136;48.788;9.772;2023-12-28T10:31:09;6.70;99.90
6206;DHT22;3136;48.788;9.772;2023-12-28T10:33:38;6.80;1.00
6206;DHT22;3136;48.788;9.772;2023-12-28T10:36:08;6.90;99.90
6206;DHT22;3136;48.788;9.772;2023-12-28T10:38:37;6.90;1.00
6206;DHT22;3136;48.788;9.772;2023-12-28T10:41:10;6.90;46.70
6206;DHT22;3136;48.788;9.772;2023-12-28T10:43:47;7.00;99.90
6206;DHT22;3136;48.788;9.772;2023-12-28T10:46:28;7.10;99.90
6206;DHT22;3136;48.788;9.772;2023-12-28T10:49:19;7.20;14.40
6206;DHT22;3136;48.788;9.772;2023-12-28T10:51:44;7.20;1.00
6206;DHT22;3136;48.788;9.772;2023-12-28T10:57:09;7.30;99.90
6206;DHT22;3136;48.788;9.772;2023-12-28T11:02:39;7.40;1.00
6206;DHT22;3136;48.788;9.772;2023-12-28T11:05:08;7.50;1.00
6206;DHT22;3136;48.788;9.772;2023-12-28T11:07:35;7.60;1.00
6206;DHT22;3136;48.788;9.772;2023-12-28T11:10:02;7.60;1.00
6206;DHT22;3136;48.788;9.772;2023-12-28T11:12:30;7.70;99.90
6206;DHT22;3136;48.788;9.772;2023-12-28T11:14:57;8.80;99.90
6206;DHT22;3136;48.788;9.772;2023-12-28T11:17:23;7.80;99.90
6206;DHT22;3136;48.788;9.772;2023-12-28T11:19:51;7.90;99.90
6206;DHT22;3136;48.788;9.772;2023-12-28T11:22:19;8.00;99.90
6206;DHT22;3136;48.788;9.772;2023-12-28T11:24:45;8.20;5.40
6206;DHT22;3136;48.788;9.772;2023-12-28T11:27:11;8.40;99.90
6206;DHT22;3136;48.788;9.772;2023-12-28T11:29:38;8.50;1.00
6206;DHT22;3136;48.788;9.772;2023-12-28T11:32:04;8.70;99.90
6206;DHT22;3136;48.788;9.772;2023-12-28T11:34:31;8.80;99.90
6206;DHT22;3136;48.788;9.772;2023-12-28T11:37:32;9.00;99.90
6206;DHT22;3136;48.788;9.772;2023-12-28T11:39:51;9.10;40.30
6206;DHT22;3136;48.788;9.772;2023-12-28T11:42:20;9.20;1.00
6206;DHT22;3136;48.788;9.772;2023-12-28T11:44:46;9.30;99.90
6206;DHT22;3136;48.788;9.772;2023-12-28T11:47:21;9.30;99.90
6206;DHT22;3136;48.788;9.772;2023-12-28T11:49:47;9.40;99.90
6206;DHT22;3136;48.788;9.772;2023-12-28T11:52:31;9.60;99.90
6206;DHT22;3136;48.788;9.772;2023-12-28T11:54:57;9.80;1.00
6206;DHT22;3136;48.788;9.772;2023-12-28T11:57:23;9.90;1.00
6206;DHT22;3136;48.788;9.772;2023-12-28T11:59:55;10.10;1.00
6206;DHT22;3136;48.788;9.772;2023-12-28T12:02:21;10.10;1.00
6206;DHT22;3136;48.788;9.772;2023-12-28T12:04:47;10.10;1.00
6206;DHT22;3136;48.788;9.772;2023-12-28T12:07:13;10.20;1.00
6206;DHT22;3136;48.788;9.772;2023-12-28T12:09:39;10.10;99.90
6206;DHT22;3136;48.788;9.772;2023-12-28T12:12:06;10.10;99.90
6206;DHT22;3136;48.788;9.772;2023-12-28T12:14:31;10.20;99.90
6206;DHT22;3136;48.788;9.772;2023-12-28T12:16:58;10.40;99.90
6206;DHT22;3136;48.788;9.772;2023-12-28T12:19:27;10.50;99.90
6206;DHT22;3136;48.788;9.772;2023-12-28T12:21:54;10.60;99.90
6206;DHT22;3136;48.788;9.772;2023-12-28T12:24:20;10.60;99.90
6206;DHT22;3136;48.788;9.772;2023-12-28T12:26:46;10.60;99.90
6206;DHT22;3136;48.788;9.772;2023-12-28T12:29:12;10.80;99.90
6206;DHT22;3136;48.788;9.772;2023-12-28T12:31:40;10.70;99.90
6206;DHT22;3136;48.788;9.772;2023-12-28T12:34:10;10.70;99.90
6206;DHT22;3136;48.788;9.772;2023-12-28T12:36:36;10.70;99.90
6206;DHT22;3136;48.788;9.772;2023-12-28T12:39:03;12.10;99.90
6206;DHT22;3136;48.788;9.772;2023-12-28T12:41:35;10.80;99.90
6206;DHT22;3136;48.788;9.772;2023-12-28T12:44:01;10.70;99.90
6206;DHT22;3136;48.788;9.772;2023-12-28T12:46:27;10.70;99.90
6206;DHT22;3136;48.788;9.772;2023-12-28T12:48:59;10.70;99.90
6206;DHT22;3136;48.788;9.772;2023-12-28T12:54:00;10.70;99.90
6206;DHT22;3136;48.788;9.772;2023-12-28T12:56:26;10.70;99.90
6206;DHT22;3136;48.788;9.772;2023-12-28T12:58:53;10.60;99.90
6206;DHT22;3136;48.788;9.772;2023-12-28T13:01:20;10.50;99.90
6206;DHT22;3136;48.788;9.772;2023-12-28T13:03:46;10.50;99.90
6206;DHT22;3136;48.788;9.772;2023-12-28T13:06:11;10.40;99.90
6206;DHT22;3136;48.788;9.772;2023-12-28T13:08:37;10.30;99.90
6206;DHT22;3136;48.788;9.772;2023-12-28T13:11:03;10.30;99.90
6206;DHT22;3136;48.788;9.772;2023-12-28T13:13:28;10.20;99.90
6206;DHT22;3136;48.788;9.772;2023-12-28T13:15:54;10.10;99.90
6206;DHT22;3136;48.788;9.772;2023-12-28T13:18:19;10.00;99.90
6206;DHT22;3136;48.788;9.772;2023-12-28T13:20:45;9.90;99.90
6206;DHT22;3136;48.788;9.772;2023-12-28T13:23:11;9.90;99.90
6206;DHT22;3136;48.788;9.772;2023-12-28T13:25:37;9.80;1.00
6206;DHT22;3136;48.788;9.772;2023-12-28T13:28:02;9.70;1.00
6206;DHT22;3136;48.788;9.772;2023-12-28T13:30:28;9.70;1.00
6206;DHT22;3136;48.788;9.772;2023-12-28T13:32:55;9.60;1.00
6206;DHT22;3136;48.788;9.772;2023-12-28T13:35:23;9.50;99.90
6206;DHT22;3136;48.788;9.772;2023-12-28T13:37:48;9.50;99.90
6206;DHT22;3136;48.788;9.772;2023-12-28T13:40:14;9.40;1.00
6206;DHT22;3136;48.788;9.772;2023-12-28T13:42:40;9.30;1.00
6206;DHT22;3136;48.788;9.772;2023-12-28T13:45:06;9.30;1.00
6206;DHT22;3136;48.788;9.772;2023-12-28T13:47:32;9.20;99.90
6206;DHT22;3136;48.788;9.772;2023-12-28T13:49:58;9.20;1.00
6206;DHT22;3136;48.788;9.772;2023-12-28T13:52:24;9.10;1.00
6206;DHT22;3136;48.788;9.772;2023-12-28T13:54:49;9.10;82.10
6206;DHT22;3136;48.788;9.772;2023-12-28T13:57:15;9.00;99.90
6206;DHT22;3136;48.788;9.772;2023-12-28T13:59:40;9.00;1.00
6206;DHT22;3136;48.788;9.772;2023-12-28T14:02:06;8.90;99.90
6206;DHT22;3136;48.788;9.772;2023-12-28T14:04:32;8.90;99.90
6206;DHT22;3136;48.788;9.772;2023-12-28T14:06:57;8.80;1.00
6206;DHT22;3136;48.788;9.772;2023-12-28T14:09:23;8.80;1.00
6206;DHT22;3136;48.788;9.772;2023-12-28T14:11:48;8.80;99.90
6206;DHT22;3136;48.788;9.772;2023-12-28T14:14:14;8.70;94.90
6206;DHT22;3136;48.788;9.772;2023-12-28T14:16:40;8.70;1.00
6206;DHT22;3136;48.788;9.772;2023-12-28T14:19:06;8.70;1.00
6206;DHT22;3136;48.788;9.772;2023-12-28T14:21:36;8.60;1.00
6206;DHT22;3136;48.788;9.772;2023-12-28T14:24:02;8.60;99.90
6206;DHT22;3136;48.788;9.772;2023-12-28T14:26:28;8.60;1.00
6206;DHT22;3136;48.788;9.772;2023-12-28T14:28:54;8.60;1.00
6206;DHT22;3136;48.788;9.772;2023-12-28T14:31:20;8.50;61.60
6206;DHT22;3136;48.788;9.772;2023-12-28T14:33:46;8.50;99.90
6206;DHT22;3136;48.788;9.772;2023-12-28T14:36:57;8.50;1.00
6206;DHT22;3136;48.788;9.772;2023-12-28T14:39:05;8.40;1.00
6206;DHT22;3136;48.788;9.772;2023-12-28T14:41:34;8.40;99.90
6206;DHT22;3136;48.788;9.772;2023-12-28T14:44:00;8.40;99.90
6206;DHT22;3136;48.788;9.772;2023-12-28T14:46:26;8.30;1.00
6206;DHT22;3136;48.788;9.772;2023-12-28T14:48:52;8.30;1.00
6206;DHT22;3136;48.788;9.772;2023-12-28T14:51:18;8.30;1.00
6206;DHT22;3136;48.788;9.772;2023-12-28T14:53:44;8.20;1.00
6206;DHT22;3136;48.788;9.772;2023-12-28T14:56:10;8.20;47.10
6206;DHT22;3136;48.788;9.772;2023-12-28T14:58:40;8.10;99.90
6206;DHT22;3136;48.788;9.772;2023-12-28T15:01:10;8.10;99.90
6206;DHT22;3136;48.788;9.772;2023-12-28T15:03:36;8.10;99.90
6206;DHT22;3136;48.788;9.772;2023-12-28T15:06:04;8.10;99.90
6206;DHT22;3136;48.788;9.772;2023-12-28T15:08:30;8.10;1.00
6206;DHT22;3136;48.788;9.772;2023-12-28T15:10:56;8.10;1.00
6206;DHT22;3136;48.788;9.772;2023-12-28T15:13:22;8.00;1.00
6206;DHT22;3136;48.788;9.772;2023-12-28T15:15:48;8.00;1.00
6206;DHT22;3136;48.788;9.772;2023-12-28T15:18:14;8.00;1.00
6206;DHT22;3136;48.788;9.772;2023-12-28T15:20:45;7.90;1.00
6206;DHT22;3136;48.788;9.772;2023-12-28T15:23:11;7.90;1.00
6206;DHT22;3136;48.788;9.772;2023-12-28T15:25:37;7.90;1.00
6206;DHT22;3136;48.788;9.772;2023-12-28T15:28:03;7.90;16.60
6206;DHT22;3136;48.788;9.772;2023-12-28T15:30:29;7.80;58.00
6206;DHT22;3136;48.788;9.772;2023-12-28T15:32:54;7.80;94.20
6206;DHT22;3136;48.788;9.772;2023-12-28T15:35:20;7.80;99.90
6206;DHT22;3136;48.788;9.772;2023-12-28T15:37:45;7.80;99.90
6206;DHT22;3136;48.788;9.772;2023-12-28T15:40:11;7.70;99.90
6206;DHT22;3136;48.788;9.772;2023-12-28T15:42:37;7.80;99.90
6206;DHT22;3136;48.788;9.772;2023-12-28T15:45:03;7.70;99.90
6206;DHT22;3136;48.788;9.772;2023-12-28T15:47:28;7.70;99.90
6206;DHT22;3136;48.788;9.772;2023-12-28T15:49:54;7.70;99.90
6206;DHT22;3136;48.788;9.772;2023-12-28T15:52:20;7.70;99.90
6206;DHT22;3136;48.788;9.772;2023-12-28T15:54:46;7.70;99.90
6206;DHT22;3136;48.788;9.772;2023-12-28T15:57:11;7.70;99.90
6206;DHT22;3136;48.788;9.772;2023-12-28T15:59:37;7.70;99.90
6206;DHT22;3136;48.788;9.772;2023-12-28T16:02:02;7.60;99.90
6206;DHT22;3136;48.788;9.772;2023-12-28T16:04:28;7.60;99.90
6206;DHT22;3136;48.788;9.772;2023-12-28T16:06:53;7.60;99.90
6206;DHT22;3136;48.788;9.772;2023-12-28T16:09:20;7.70;1.00
6206;DHT22;3136;48.788;9.772;2023-12-28T16:11:46;7.60;1.00
6206;DHT22;3136;48.788;9.772;2023-12-28T16:14:12;7.60;1.00
6206;DHT22;3136;48.788;9.772;2023-12-28T16:16:38;7.60;1.00
6206;DHT22;3136;48.788;9.772;2023-12-28T16:19:04;7.60;1.00
6206;DHT22;3136;48.788;9.772;2023-12-28T16:21:30;7.60;1.00
6206;DHT22;3136;48.788;9.772;2023-12-28T16:23:57;7.60;1.00
6206;DHT22;3136;48.788;9.772;2023-12-28T16:26:23;7.60;1.00